createdAt,value
2023-02-25T00:05:44.761Z,21.4
2023-02-25T00:11:37.266Z,21.4
2023-02-25T00:17:31.515Z,21.4
2023-02-25T00:23:25.049Z,21.4
2023-02-25T00:29:26.436Z,21.4
2023-02-25T00:35:19.327Z,21.4
2023-02-25T00:41:18.457Z,21.3
2023-02-25T00:47:12.251Z,21.3
2023-02-25T00:52:55.981Z,21.3
2023-02-25T00:58:49.314Z,21.3
2023-02-25T01:04:48.787Z,21.3
2023-02-25T01:10:44.350Z,21.3
2023-02-25T01:16:38.837Z,21.3
2023-02-25T01:27:38.461Z,21.3
2023-02-25T01:33:33.754Z,21.3
2023-02-25T01:39:26.746Z,21.3
2023-02-25T01:45:19.541Z,21.3
2023-02-25T01:51:12.976Z,21.3
2023-02-25T01:57:06.955Z,21.3
2023-02-25T02:02:59.466Z,21.2
2023-02-25T02:08:53.571Z,21.3
2023-02-25T02:14:47.005Z,21.2
2023-02-25T02:20:39.659Z,21.2
2023-02-25T02:26:32.690Z,21.2
2023-02-25T02:32:10.179Z,21.2
2023-02-25T02:38:03.233Z,21.2
2023-02-25T02:43:41.068Z,21.2
2023-02-25T02:49:33.931Z,21.2
2023-02-25T02:55:26.832Z,21.2
2023-02-25T03:01:03.935Z,21.2
2023-02-25T03:57:07.198Z,21.1
2023-02-25T04:02:44.765Z,21.1
2023-02-25T04:08:23.075Z,21.1
2023-02-25T04:14:15.247Z,21.1
2023-02-25T04:19:37.758Z,21.1
2023-02-25T04:25:30.163Z,21.1
2023-02-25T04:30:53.578Z,21.1
2023-02-25T04:36:48.224Z,21.1
2023-02-25T04:42:41.968Z,21.1
2023-02-25T04:48:36.339Z,21
2023-02-25T04:54:30.193Z,21
2023-02-25T05:00:22.411Z,21
2023-02-25T05:06:15.969Z,21
2023-02-25T05:12:10.945Z,21.1
2023-02-25T05:23:27.670Z,21.2
2023-02-25T05:29:20.636Z,21.3
2023-02-25T05:34:59.267Z,21.3
2023-02-25T05:40:36.652Z,21.3
2023-02-25T05:46:29.336Z,21.3
2023-02-25T05:52:07.081Z,21.3
2023-02-25T05:57:43.310Z,21.3
2023-02-25T06:03:21.403Z,21.3
2023-02-25T06:08:59.082Z,21.3
2023-02-25T06:14:35.780Z,21.3
2023-02-25T06:20:29.834Z,21.3
2023-02-25T06:26:07.734Z,21.3
2023-02-25T06:32:01.440Z,21.3
2023-02-25T06:37:24.414Z,21.2
2023-02-25T06:43:17.967Z,21.2
2023-02-25T07:06:06.443Z,21.1
2023-02-25T07:28:21.117Z,21.1
2023-02-25T07:34:16.298Z,21.1
2023-02-25T07:40:09.337Z,21.1
2023-02-25T07:46:01.356Z,21
2023-02-25T07:51:54.417Z,20.9
2023-02-25T07:57:48.276Z,20.9
2023-02-25T08:03:44.551Z,17.3
2023-02-25T08:09:39.917Z,23.3
2023-02-25T08:15:32.901Z,26.9
2023-02-25T08:21:26.094Z,26.4
2023-02-25T08:27:19.854Z,27
2023-02-25T08:33:15.190Z,27.4
2023-02-25T08:38:53.217Z,27.4
2023-02-25T08:44:48.563Z,27.6
2023-02-25T08:50:41.271Z,27.5
2023-02-25T08:56:34.440Z,27.3
2023-02-25T09:02:27.118Z,25.8
2023-02-25T09:08:22.913Z,24.8
2023-02-25T09:14:29.070Z,24.1
2023-02-25T09:20:06.960Z,23.8
2023-02-25T09:25:59.167Z,23.6
2023-02-25T09:31:52.223Z,23.3
2023-02-25T09:37:46.073Z,23
2023-02-25T09:43:38.752Z,22.9
2023-02-25T09:49:19.250Z,22.8
2023-02-25T09:54:57.731Z,22.8
2023-02-25T10:00:34.333Z,22.7
2023-02-25T10:06:13.055Z,22.8
2023-02-25T10:11:50.746Z,22.7
2023-02-25T10:17:32.819Z,22.7
2023-02-25T10:23:09.939Z,22.8
2023-02-25T10:28:46.761Z,22.8
2023-02-25T10:34:40.289Z,22.8
2023-02-25T10:40:32.696Z,22.9
2023-02-25T10:46:26.340Z,22.9
2023-02-25T10:52:25.461Z,22.8
2023-02-25T10:58:18.347Z,22.8
2023-02-25T11:04:12.798Z,22.8
2023-02-25T11:10:05.142Z,22.9
2023-02-25T11:16:16.002Z,23
2023-02-25T11:22:12.315Z,23.1
2023-02-25T11:28:03.880Z,23.2
2023-02-25T11:34:00.804Z,23.2
2023-02-25T11:39:57.466Z,23.3
2023-02-25T11:45:50.083Z,23
2023-02-25T11:51:43.284Z,23.1
2023-02-25T11:57:05.348Z,23.1
2023-02-25T12:02:58.261Z,23.4
2023-02-25T12:09:05.865Z,23.6
2023-02-25T12:14:57.904Z,23.8
2023-02-25T12:20:35.110Z,23.6
2023-02-25T12:26:28.710Z,23.3
2023-02-25T12:32:21.574Z,23.4
2023-02-25T12:38:13.841Z,23.6
2023-02-25T12:44:10.968Z,23.8
2023-02-25T12:50:04.353Z,24
2023-02-25T12:55:58.411Z,24.3
2023-02-25T13:01:36.758Z,24.6
2023-02-25T13:07:30.329Z,25.4
2023-02-25T13:13:49.216Z,26.6
2023-02-25T13:19:42.004Z,26.6
2023-02-25T13:25:35.543Z,26.3
2023-02-25T13:31:28.540Z,25.9
2023-02-25T13:37:22.620Z,25.4
2023-02-25T13:42:59.752Z,25.2
2023-02-25T13:48:52.170Z,25
2023-02-25T13:54:47.896Z,24.6
2023-02-25T14:00:40.664Z,24.1
2023-02-25T14:06:32.912Z,24.1
2023-02-25T14:12:30.366Z,23.9
2023-02-25T14:18:23.792Z,23.7
2023-02-25T14:24:17.185Z,23.6
2023-02-25T14:29:39.966Z,23.7
2023-02-25T14:35:33.648Z,23.9
2023-02-25T14:41:26.674Z,23.9
2023-02-25T14:47:19.167Z,23.7
2023-02-25T14:53:12.099Z,23.5
2023-02-25T14:59:04.498Z,23.3
2023-02-25T15:04:58.724Z,23.3
2023-02-25T15:10:53.420Z,23.2
2023-02-25T15:16:46.064Z,22.9
2023-02-25T15:22:24.732Z,22.7
2023-02-25T15:28:17.473Z,22.4
2023-02-25T15:34:12.440Z,22.2
2023-02-25T15:40:04.755Z,22.2
2023-02-25T15:46:00.125Z,22.1
2023-02-25T15:51:21.717Z,22.2
2023-02-25T15:57:15.121Z,22.1
2023-02-25T16:02:53.668Z,22.1
2023-02-25T16:08:50.919Z,22.3
2023-02-25T16:14:43.035Z,22.5
2023-02-25T16:20:37.612Z,22.8
2023-02-25T16:26:29.959Z,23.1
2023-02-25T16:32:23.789Z,23.4
2023-02-25T16:38:21.741Z,23.8
2023-02-25T16:44:07.221Z,24
2023-02-25T16:50:00.565Z,24.2
2023-02-25T16:55:54.410Z,24.4
2023-02-25T17:01:31.798Z,24.5
2023-02-25T17:07:25.569Z,24.6
2023-02-25T17:13:18.331Z,24.6
2023-02-25T17:19:12.148Z,24.7
2023-02-25T17:24:50.669Z,24.8
2023-02-25T17:30:44.745Z,24.8
2023-02-25T17:36:39.307Z,24.9
2023-02-25T17:42:34.825Z,25.1
2023-02-25T17:48:28.948Z,25.3
2023-02-25T17:54:23.250Z,25.4
2023-02-25T18:00:18.853Z,25.6
2023-02-25T18:06:13.647Z,25.8
2023-02-25T18:12:07.820Z,26.1
2023-02-25T18:18:12.037Z,26.5
2023-02-25T18:24:06.063Z,27
2023-02-25T18:29:59.774Z,27.5
2023-02-25T18:35:39.517Z,28.1
2023-02-25T18:41:35.561Z,28.7
2023-02-25T18:47:30.348Z,29.4
2023-02-25T18:53:24.863Z,30.1
2023-02-25T18:59:18.377Z,30.7
2023-02-25T19:04:56.669Z,31.1
2023-02-25T19:10:50.055Z,31.4
2023-02-25T19:16:44.942Z,31.7
2023-02-25T19:22:38.201Z,32
2023-02-25T19:28:31.010Z,32.4
2023-02-25T19:34:27.044Z,32.8
2023-02-25T19:40:04.229Z,32.9
2023-02-25T19:45:58.031Z,33
2023-02-25T19:51:51.819Z,33.1
2023-02-25T19:57:46.402Z,33.1
2023-02-25T20:03:40.316Z,33.1
2023-02-25T20:09:35.030Z,33
2023-02-25T20:15:28.157Z,32.9
2023-02-25T20:21:23.165Z,32.8
2023-02-25T20:27:19.646Z,32.7
2023-02-25T20:33:13.171Z,32.6
2023-02-25T20:38:54.503Z,32.6
2023-02-25T20:44:48.886Z,32.6
2023-02-25T20:50:43.408Z,32.6
2023-02-25T20:56:36.326Z,32.6
2023-02-25T21:02:29.780Z,32.6
2023-02-25T21:08:24.847Z,32.5
2023-02-25T21:14:19.215Z,32.6
2023-02-25T21:20:12.778Z,32.4
2023-02-25T21:26:06.239Z,32.4
2023-02-25T21:32:00.561Z,32.4
2023-02-25T21:37:55.371Z,32.3
2023-02-25T21:43:48.301Z,32.3
2023-02-25T21:49:41.462Z,32.2
2023-02-25T21:55:33.981Z,32.1
2023-02-25T22:01:26.712Z,32.1
2023-02-25T22:07:20.940Z,32.1
2023-02-25T22:13:13.612Z,32.1
2023-02-25T22:19:06.449Z,32
2023-02-25T22:25:00.908Z,31.9
2023-02-25T22:30:55.351Z,31.9
2023-02-25T22:36:48.009Z,31.9
2023-02-25T22:42:25.390Z,31.9
2023-02-25T22:48:03.693Z,31.9
2023-02-25T22:53:54.620Z,31.8
2023-02-25T22:59:47.108Z,31.8
2023-02-25T23:05:38.840Z,31.8
2023-02-25T23:11:45.938Z,31.8
2023-02-25T23:17:41.148Z,31.7
2023-02-25T23:23:33.442Z,31.7
2023-02-25T23:29:26.175Z,31.6
2023-02-25T23:35:19.249Z,31.6
2023-02-25T23:41:13.422Z,31.6
2023-02-25T23:47:10.114Z,31.6
2023-02-25T23:53:03.675Z,31.5
2023-02-25T23:58:57.283Z,31.5
